sensor_id;sensor_type;location;lat;lon;timestamp;pressure;altitude;pressure_sealevel;temperature;humidity
55610;BME280;41486;52.502;13.486;2023-04-09T00:00:12;102107.91;;;5.07;100.00
55610;BME280;41486;52.502;13.486;2023-04-09T00:02:43;102115.13;;;4.97;100.00
55610;BME280;41486;52.502;13.486;2023-04-09T00:05:11;102117.66;;;5.00;100.00
55610;BME280;41486;52.502;13.486;2023-04-09T00:07:39;102115.69;;;5.08;100.00
55610;BME280;41486;52.502;13.486;2023-04-09T00:10:10;102125.81;;;5.19;100.00
55610;BME280;41486;52.502;13.486;2023-04-09T00:12:39;102114.53;;;4.88;100.00
55610;BME280;41486;52.502;13.486;2023-04-09T00:15:08;102110.34;;;4.83;100.00
55610;BME280;41486;52.502;13.486;2023-04-09T00:17:53;102111.66;;;4.66;100.00
55610;BME280;41486;52.502;13.486;2023-04-09T00:20:22;102113.84;;;4.82;100.00
55610;BME280;41486;52.502;13.486;2023-04-09T00:22:50;102107.69;;;4.84;100.00
55610;BME280;41486;52.502;13.486;2023-04-09T00:25:18;102111.97;;;4.55;100.00
55610;BME280;41486;52.502;13.486;2023-04-09T00:27:48;102113.00;;;4.50;100.00
55610;BME280;41486;52.502;13.486;2023-04-09T00:30:16;102106.13;;;4.47;100.00
55610;BME280;41486;52.502;13.486;2023-04-09T00:33:02;102109.50;;;4.51;100.00
55610;BME280;41486;52.502;13.486;2023-04-09T00:35:30;102112.13;;;4.49;100.00
55610;BME280;41486;52.502;13.486;2023-04-09T00:37:58;102102.94;;;4.36;100.00
55610;BME280;41486;52.502;13.486;2023-04-09T00:40:26;102112.00;;;4.54;100.00
55610;BME280;41486;52.502;13.486;2023-04-09T00:42:56;102116.91;;;4.65;100.00
55610;BME280;41486;52.502;13.486;2023-04-09T00:45:24;102118.41;;;4.42;100.00
55610;BME280;41486;52.502;13.486;2023-04-09T00:47:52;102116.97;;;4.30;100.00
55610;BME280;41486;52.502;13.486;2023-04-09T00:50:21;102115.25;;;4.29;100.00
55610;BME280;41486;52.502;13.486;2023-04-09T00:52:49;102111.81;;;4.29;100.00
55610;BME280;41486;52.502;13.486;2023-04-09T00:55:17;102111.75;;;4.30;100.00
55610;BME280;41486;52.502;13.486;2023-04-09T00:57:46;102110.38;;;4.17;100.00
55610;BME280;41486;52.502;13.486;2023-04-09T01:00:16;102109.78;;;4.05;100.00
55610;BME280;41486;52.502;13.486;2023-04-09T01:02:44;102108.66;;;4.16;100.00
55610;BME280;41486;52.502;13.486;2023-04-09T01:05:13;102108.81;;;4.09;100.00
55610;BME280;41486;52.502;13.486;2023-04-09T01:07:56;102112.28;;;4.10;100.00
55610;BME280;41486;52.502;13.486;2023-04-09T01:10:32;102101.75;;;4.15;100.00
55610;BME280;41486;52.502;13.486;2023-04-09T01:13:06;102111.63;;;4.02;100.00
55610;BME280;41486;52.502;13.486;2023-04-09T01:15:39;102114.44;;;3.94;100.00
55610;BME280;41486;52.502;13.486;2023-04-09T01:18:14;102113.53;;;3.95;100.00
55610;BME280;41486;52.502;13.486;2023-04-09T01:20:48;102110.38;;;3.82;100.00
55610;BME280;41486;52.502;13.486;2023-04-09T01:23:29;102107.00;;;3.78;100.00
55610;BME280;41486;52.502;13.486;2023-04-09T01:26:02;102110.53;;;3.76;100.00
55610;BME280;41486;52.502;13.486;2023-04-09T01:28:48;102109.75;;;3.72;100.00
55610;BME280;41486;52.502;13.486;2023-04-09T01:31:20;102112.47;;;3.68;100.00
55610;BME280;41486;52.502;13.486;2023-04-09T01:33:52;102109.84;;;3.68;100.00
55610;BME280;41486;52.502;13.486;2023-04-09T01:36:20;102111.47;;;3.72;100.00
55610;BME280;41486;52.502;13.486;2023-04-09T01:38:53;102108.84;;;3.73;100.00
55610;BME280;41486;52.502;13.486;2023-04-09T01:41:23;102121.31;;;3.60;100.00
55610;BME280;41486;52.502;13.486;2023-04-09T01:43:53;102118.72;;;3.59;100.00
55610;BME280;41486;52.502;13.486;2023-04-09T01:46:23;102118.63;;;3.63;100.00
55610;BME280;41486;52.502;13.486;2023-04-09T01:48:53;102117.91;;;3.57;100.00
55610;BME280;41486;52.502;13.486;2023-04-09T01:51:22;102108.50;;;3.51;100.00
55610;BME280;41486;52.502;13.486;2023-04-09T01:53:52;102113.81;;;3.45;100.00
55610;BME280;41486;52.502;13.486;2023-04-09T01:56:20;102115.53;;;3.47;100.00
55610;BME280;41486;52.502;13.486;2023-04-09T01:58:48;102114.66;;;3.47;100.00
55610;BME280;41486;52.502;13.486;2023-04-09T02:01:22;102122.16;;;3.61;100.00
55610;BME280;41486;52.502;13.486;2023-04-09T02:03:53;102123.78;;;3.65;100.00
55610;BME280;41486;52.502;13.486;2023-04-09T02:06:29;102128.59;;;3.44;100.00
55610;BME280;41486;52.502;13.486;2023-04-09T02:09:00;102123.34;;;3.47;100.00
55610;BME280;41486;52.502;13.486;2023-04-09T02:11:31;102122.16;;;3.61;100.00
55610;BME280;41486;52.502;13.486;2023-04-09T02:14:00;102127.75;;;3.44;100.00
55610;BME280;41486;52.502;13.486;2023-04-09T02:16:32;102123.53;;;3.38;100.00
55610;BME280;41486;52.502;13.486;2023-04-09T02:19:00;102128.59;;;3.44;100.00
55610;BME280;41486;52.502;13.486;2023-04-09T02:21:28;102120.84;;;3.41;100.00
55610;BME280;41486;52.502;13.486;2023-04-09T02:23:57;102120.78;;;3.44;100.00
55610;BME280;41486;52.502;13.486;2023-04-09T02:26:25;102124.53;;;3.33;100.00
55610;BME280;41486;52.502;13.486;2023-04-09T02:28:53;102128.16;;;3.25;100.00
55610;BME280;41486;52.502;13.486;2023-04-09T02:31:21;102122.22;;;3.20;100.00
55610;BME280;41486;52.502;13.486;2023-04-09T02:33:50;102119.75;;;3.12;100.00
55610;BME280;41486;52.502;13.486;2023-04-09T02:36:19;102121.47;;;3.13;100.00
55610;BME280;41486;52.502;13.486;2023-04-09T02:38:47;102118.03;;;3.11;100.00
55610;BME280;41486;52.502;13.486;2023-04-09T02:41:15;102113.56;;;3.18;100.00
55610;BME280;41486;52.502;13.486;2023-04-09T02:43:43;102116.13;;;3.20;100.00
55610;BME280;41486;52.502;13.486;2023-04-09T02:46:11;102124.88;;;3.17;100.00
55610;BME280;41486;52.502;13.486;2023-04-09T02:48:39;102125.84;;;3.11;100.00
55610;BME280;41486;52.502;13.486;2023-04-09T02:51:08;102122.41;;;3.11;100.00
55610;BME280;41486;52.502;13.486;2023-04-09T02:53:36;102116.47;;;3.43;100.00
55610;BME280;41486;52.502;13.486;2023-04-09T02:56:06;102118.88;;;3.53;100.00
55610;BME280;41486;52.502;13.486;2023-04-09T02:58:34;102121.88;;;3.36;100.00
55610;BME280;41486;52.502;13.486;2023-04-09T03:01:02;102122.78;;;3.33;100.00
55610;BME280;41486;52.502;13.486;2023-04-09T03:03:30;102118.72;;;3.20;100.00
55610;BME280;41486;52.502;13.486;2023-04-09T03:05:58;102123.31;;;3.08;100.00
55610;BME280;41486;52.502;13.486;2023-04-09T03:08:27;102115.56;;;3.05;100.00
55610;BME280;41486;52.502;13.486;2023-04-09T03:10:55;102113.47;;;3.23;100.00
55610;BME280;41486;52.502;13.486;2023-04-09T03:13:23;102115.19;;;3.24;100.00
55610;BME280;41486;52.502;13.486;2023-04-09T03:15:52;102113.56;;;3.18;100.00
55610;BME280;41486;52.502;13.486;2023-04-09T03:18:20;102109.28;;;3.15;100.00
55610;BME280;41486;52.502;13.486;2023-04-09T03:20:47;102110.34;;;3.46;100.00
55610;BME280;41486;52.502;13.486;2023-04-09T03:23:15;102110.03;;;3.96;100.00
55610;BME280;41486;52.502;13.486;2023-04-09T03:25:47;102104.88;;;3.58;100.00
55610;BME280;41486;52.502;13.486;2023-04-09T03:28:16;102105.94;;;3.86;100.00
55610;BME280;41486;52.502;13.486;2023-04-09T03:30:48;102098.09;;;3.87;100.00
55610;BME280;41486;52.502;13.486;2023-04-09T03:33:17;102096.41;;;3.85;100.00
55610;BME280;41486;52.502;13.486;2023-04-09T03:35:54;102099.28;;;4.08;100.00
55610;BME280;41486;52.502;13.486;2023-04-09T03:38:31;102097.63;;;3.70;100.00
55610;BME280;41486;52.502;13.486;2023-04-09T03:41:06;102104.03;;;3.56;100.00
55610;BME280;41486;52.502;13.486;2023-04-09T03:43:34;102097.28;;;3.49;100.00
55610;BME280;41486;52.502;13.486;2023-04-09T03:46:10;102103.75;;;3.31;100.00
55610;BME280;41486;52.502;13.486;2023-04-09T03:48:39;102102.34;;;3.16;100.00
55610;BME280;41486;52.502;13.486;2023-04-09T03:51:10;102106.38;;;3.29;100.00
55610;BME280;41486;52.502;13.486;2023-04-09T03:53:40;102111.38;;;3.39;100.00
55610;BME280;41486;52.502;13.486;2023-04-09T03:56:10;102105.53;;;3.29;100.00
55610;BME280;41486;52.502;13.486;2023-04-09T03:58:38;102104.53;;;3.35;100.00
55610;BME280;41486;52.502;13.486;2023-04-09T04:01:07;102110.97;;;3.18;100.00
55610;BME280;41486;52.502;13.486;2023-04-09T04:03:40;102109.31;;;3.14;100.00
55610;BME280;41486;52.502;13.486;2023-04-09T04:06:19;102108.75;;;2.99;100.00
55610;BME280;41486;52.502;13.486;2023-04-09T04:08:55;102106.38;;;2.89;100.00
55610;BME280;41486;52.502;13.486;2023-04-09T04:11:34;102103.50;;;3.01;100.00
55610;BME280;41486;52.502;13.486;2023-04-09T04:14:02;102109.13;;;2.82;100.00
55610;BME280;41486;52.502;13.486;2023-04-09T04:16:30;102111.84;;;2.75;100.00
55610;BME280;41486;52.502;13.486;2023-04-09T04:19:00;102114.59;;;2.68;100.00
55610;BME280;41486;52.502;13.486;2023-04-09T04:21:31;102118.56;;;2.41;100.00
55610;BME280;41486;52.502;13.486;2023-04-09T04:24:00;102123.59;;;2.50;100.00
55610;BME280;41486;52.502;13.486;2023-04-09T04:26:29;102120.56;;;2.25;100.00
55610;BME280;41486;52.502;13.486;2023-04-09T04:28:58;102128.84;;;1.97;100.00
55610;BME280;41486;52.502;13.486;2023-04-09T04:31:52;102133.28;;;1.92;100.00
55610;BME280;41486;52.502;13.486;2023-04-09T04:34:23;102134.63;;;2.13;100.00
55610;BME280;41486;52.502;13.486;2023-04-09T04:37:12;102143.56;;;1.97;100.00
55610;BME280;41486;52.502;13.486;2023-04-09T04:39:40;102149.47;;;2.07;100.00
55610;BME280;41486;52.502;13.486;2023-04-09T04:42:12;102153.91;;;2.00;100.00
55610;BME280;41486;52.502;13.486;2023-04-09T04:44:42;102158.81;;;2.17;100.00
55610;BME280;41486;52.502;13.486;2023-04-09T04:47:57;102151.78;;;2.24;100.00
55610;BME280;41486;52.502;13.486;2023-04-09T04:50:38;102151.13;;;2.12;100.00
55610;BME280;41486;52.502;13.486;2023-04-09T04:53:39;102157.78;;;2.27;100.00
55610;BME280;41486;52.502;13.486;2023-04-09T04:56:57;102168.09;;;2.32;100.00
55610;BME280;41486;52.502;13.486;2023-04-09T05:00:12;102176.78;;;2.78;100.00
55610;BME280;41486;52.502;13.486;2023-04-09T05:02:40;102182.78;;;2.81;100.00
55610;BME280;41486;52.502;13.486;2023-04-09T05:05:21;102179.91;;;2.97;100.00
55610;BME280;41486;52.502;13.486;2023-04-09T05:08:24;102189.28;;;3.04;100.00
55610;BME280;41486;52.502;13.486;2023-04-09T05:10:54;102196.28;;;3.00;100.00
55610;BME280;41486;52.502;13.486;2023-04-09T05:13:29;102187.34;;;3.15;100.00
55610;BME280;41486;52.502;13.486;2023-04-09T05:16:00;102185.63;;;3.14;100.00
55610;BME280;41486;52.502;13.486;2023-04-09T05:18:33;102194.13;;;3.23;100.00
55610;BME280;41486;52.502;13.486;2023-04-09T05:21:01;102188.09;;;3.21;100.00
55610;BME280;41486;52.502;13.486;2023-04-09T05:23:34;102186.44;;;3.16;100.00
55610;BME280;41486;52.502;13.486;2023-04-09T05:26:02;102185.63;;;3.14;100.00
55610;BME280;41486;52.502;13.486;2023-04-09T05:28:45;102188.06;;;3.22;100.00
55610;BME280;41486;52.502;13.486;2023-04-09T05:31:18;102192.13;;;3.34;100.00
55610;BME280;41486;52.502;13.486;2023-04-09T05:34:00;102189.84;;;3.20;100.00
55610;BME280;41486;52.502;13.486;2023-04-09T05:36:45;102189.63;;;3.31;100.00
55610;BME280;41486;52.502;13.486;2023-04-09T05:39:13;102192.88;;;3.41;100.00
55610;BME280;41486;52.502;13.486;2023-04-09T05:41:43;102189.31;;;3.45;100.00
55610;BME280;41486;52.502;13.486;2023-04-09T05:44:19;102194.50;;;3.45;100.00
55610;BME280;41486;52.502;13.486;2023-04-09T05:46:51;102187.22;;;3.22;100.00
55610;BME280;41486;52.502;13.486;2023-04-09T05:49:23;102183.81;;;3.16;100.00
55610;BME280;41486;52.502;13.486;2023-04-09T05:51:53;102182.09;;;3.17;100.00
55610;BME280;41486;52.502;13.486;2023-04-09T05:54:25;102183.72;;;3.23;100.00
55610;BME280;41486;52.502;13.486;2023-04-09T05:56:53;102184.59;;;3.22;100.00
55610;BME280;41486;52.502;13.486;2023-04-09T05:59:21;102184.09;;;3.04;100.00
55610;BME280;41486;52.502;13.486;2023-04-09T06:01:51;102183.63;;;3.27;100.00
55610;BME280;41486;52.502;13.486;2023-04-09T06:04:19;102177.03;;;3.09;100.00
55610;BME280;41486;52.502;13.486;2023-04-09T06:06:47;102181.91;;;3.25;100.00
55610;BME280;41486;52.502;13.486;2023-04-09T06:09:15;102175.03;;;3.22;100.00
55610;BME280;41486;52.502;13.486;2023-04-09T06:11:43;102181.63;;;3.39;100.00
55610;BME280;41486;52.502;13.486;2023-04-09T06:14:11;102179.81;;;3.44;100.00
55610;BME280;41486;52.502;13.486;2023-04-09T06:16:42;102187.91;;;3.69;100.00
55610;BME280;41486;52.502;13.486;2023-04-09T06:19:12;102187.53;;;3.86;100.00
55610;BME280;41486;52.502;13.486;2023-04-09T06:21:42;102182.47;;;3.80;100.00
55610;BME280;41486;52.502;13.486;2023-04-09T06:24:10;102185.03;;;3.82;100.00
55610;BME280;41486;52.502;13.486;2023-04-09T06:26:38;102186.75;;;3.83;100.00
55610;BME280;41486;52.502;13.486;2023-04-09T06:29:06;102184.84;;;3.89;100.00
55610;BME280;41486;52.502;13.486;2023-04-09T06:31:34;102181.94;;;4.03;100.00
55610;BME280;41486;52.502;13.486;2023-04-09T06:34:02;102181.09;;;4.01;100.00
55610;BME280;41486;52.502;13.486;2023-04-09T06:36:32;102185.59;;;4.31;100.00
55610;BME280;41486;52.502;13.486;2023-04-09T06:39:00;102177.34;;;4.48;100.00
55610;BME280;41486;52.502;13.486;2023-04-09T06:41:28;102172.84;;;4.53;100.00
55610;BME280;41486;52.502;13.486;2023-04-09T06:43:57;102171.81;;;4.60;100.00
55610;BME280;41486;52.502;13.486;2023-04-09T06:46:25;102169.69;;;4.74;100.00
55610;BME280;41486;52.502;13.486;2023-04-09T06:48:53;102172.69;;;4.92;100.00
55610;BME280;41486;52.502;13.486;2023-04-09T06:51:21;102181.31;;;4.94;100.00
55610;BME280;41486;52.502;13.486;2023-04-09T06:53:50;102172.06;;;4.51;100.00
55610;BME280;41486;52.502;13.486;2023-04-09T06:56:18;102180.19;;;4.71;100.00
55610;BME280;41486;52.502;13.486;2023-04-09T06:58:46;102182.47;;;4.84;100.00
55610;BME280;41486;52.502;13.486;2023-04-09T07:01:14;102185.94;;;4.84;100.00
55610;BME280;41486;52.502;13.486;2023-04-09T07:03:43;102181.56;;;4.85;100.00
55610;BME280;41486;52.502;13.486;2023-04-09T07:06:11;102187.00;;;4.77;100.00
55610;BME280;41486;52.502;13.486;2023-04-09T07:08:39;102191.31;;;5.10;100.00
55610;BME280;41486;52.502;13.486;2023-04-09T07:11:09;102191.09;;;5.47;100.00
55610;BME280;41486;52.502;13.486;2023-04-09T07:13:37;102192.47;;;5.59;100.00
55610;BME280;41486;52.502;13.486;2023-04-09T07:16:05;102192.34;;;5.64;100.00
55610;BME280;41486;52.502;13.486;2023-04-09T07:18:33;102197.72;;;4.98;100.00
55610;BME280;41486;52.502;13.486;2023-04-09T07:21:01;102198.50;;;4.70;100.00
55610;BME280;41486;52.502;13.486;2023-04-09T07:23:33;102198.28;;;4.78;100.00
55610;BME280;41486;52.502;13.486;2023-04-09T07:26:02;102196.38;;;4.84;100.00
55610;BME280;41486;52.502;13.486;2023-04-09T07:28:32;102193.75;;;4.84;100.00
55610;BME280;41486;52.502;13.486;2023-04-09T07:31:00;102192.91;;;4.84;100.00
55610;BME280;41486;52.502;13.486;2023-04-09T07:33:29;102197.47;;;5.37;100.00
55610;BME280;41486;52.502;13.486;2023-04-09T07:35:57;102184.22;;;5.45;100.00
55610;BME280;41486;52.502;13.486;2023-04-09T07:38:27;102191.88;;;5.21;100.00
55610;BME280;41486;52.502;13.486;2023-04-09T07:40:55;102192.09;;;5.43;100.00
55610;BME280;41486;52.502;13.486;2023-04-09T07:43:24;102193.34;;;5.30;100.00
55610;BME280;41486;52.502;13.486;2023-04-09T07:45:53;102194.72;;;5.12;100.00
55610;BME280;41486;52.502;13.486;2023-04-09T07:48:21;102194.47;;;5.51;100.00
55610;BME280;41486;52.502;13.486;2023-04-09T07:50:49;102195.34;;;5.50;100.00
55610;BME280;41486;52.502;13.486;2023-04-09T07:53:19;102190.88;;;5.55;100.00
55610;BME280;41486;52.502;13.486;2023-04-09T07:55:49;102191.03;;;5.49;100.00
55610;BME280;41486;52.502;13.486;2023-04-09T07:58:17;102193.03;;;5.99;100.00
55610;BME280;41486;52.502;13.486;2023-04-09T08:00:47;102186.91;;;5.98;100.00
55610;BME280;41486;52.502;13.486;2023-04-09T08:03:16;102202.63;;;5.97;100.00
55610;BME280;41486;52.502;13.486;2023-04-09T08:05:45;102194.94;;;5.64;100.00
55610;BME280;41486;52.502;13.486;2023-04-09T08:08:13;102199.19;;;5.96;100.00
55610;BME280;41486;52.502;13.486;2023-04-09T08:10:41;102196.88;;;5.85;100.00
55610;BME280;41486;52.502;13.486;2023-04-09T08:13:09;102203.53;;;5.39;100.00
55610;BME280;41486;52.502;13.486;2023-04-09T08:15:37;102204.50;;;5.65;100.00
55610;BME280;41486;52.502;13.486;2023-04-09T08:18:05;102213.16;;;5.65;100.00
55610;BME280;41486;52.502;13.486;2023-04-09T08:20:35;102218.72;;;5.84;100.00
55610;BME280;41486;52.502;13.486;2023-04-09T08:23:03;102220.38;;;5.87;100.00
55610;BME280;41486;52.502;13.486;2023-04-09T08:25:31;102214.25;;;5.88;100.00
55610;BME280;41486;52.502;13.486;2023-04-09T08:27:59;102221.63;;;6.04;100.00
55610;BME280;41486;52.502;13.486;2023-04-09T08:30:27;102220.72;;;6.05;100.00
55610;BME280;41486;52.502;13.486;2023-04-09T08:32:55;102219.41;;;5.61;100.00
55610;BME280;41486;52.502;13.486;2023-04-09T08:35:23;102223.97;;;5.83;100.00
55610;BME280;41486;52.502;13.486;2023-04-09T08:37:52;102224.63;;;5.90;100.00
55610;BME280;41486;52.502;13.486;2023-04-09T08:40:20;102214.53;;;5.79;100.00
55610;BME280;41486;52.502;13.486;2023-04-09T08:42:52;102213.31;;;5.89;100.00
55610;BME280;41486;52.502;13.486;2023-04-09T08:45:21;102217.16;;;6.07;100.00
55610;BME280;41486;52.502;13.486;2023-04-09T08:47:50;102218.00;;;6.35;100.00
55610;BME280;41486;52.502;13.486;2023-04-09T08:50:18;102204.53;;;6.72;100.00
55610;BME280;41486;52.502;13.486;2023-04-09T08:52:46;102206.94;;;6.78;100.00
55610;BME280;41486;52.502;13.486;2023-04-09T08:55:17;102210.91;;;7.14;100.00
55610;BME280;41486;52.502;13.486;2023-04-09T08:57:45;102207.31;;;6.68;100.00
55610;BME280;41486;52.502;13.486;2023-04-09T09:00:13;102211.25;;;6.79;100.00
55610;BME280;41486;52.502;13.486;2023-04-09T09:03:02;102202.91;;;7.17;100.00
55610;BME280;41486;52.502;13.486;2023-04-09T09:05:35;102199.53;;;6.90;100.00
55610;BME280;41486;52.502;13.486;2023-04-09T09:08:03;102211.69;;;7.16;100.00
55610;BME280;41486;52.502;13.486;2023-04-09T09:10:37;102200.97;;;7.46;100.00
55610;BME280;41486;52.502;13.486;2023-04-09T09:13:16;102207.03;;;7.01;100.00
55610;BME280;41486;52.502;13.486;2023-04-09T09:15:45;102202.13;;;7.15;100.00
55610;BME280;41486;52.502;13.486;2023-04-09T09:18:16;102208.88;;;7.68;100.00
55610;BME280;41486;52.502;13.486;2023-04-09T09:20:45;102212.91;;;7.53;100.00
55610;BME280;41486;52.502;13.486;2023-04-09T09:23:13;102212.81;;;7.56;100.00
55610;BME280;41486;52.502;13.486;2023-04-09T09:25:42;102199.16;;;7.70;100.00
55610;BME280;41486;52.502;13.486;2023-04-09T09:28:11;102203.66;;;7.45;100.00
55610;BME280;41486;52.502;13.486;2023-04-09T09:30:39;102205.38;;;7.68;100.00
55610;BME280;41486;52.502;13.486;2023-04-09T09:33:09;102203.00;;;7.62;100.00
55610;BME280;41486;52.502;13.486;2023-04-09T09:35:47;102205.06;;;8.20;100.00
55610;BME280;41486;52.502;13.486;2023-04-09T09:38:16;102201.25;;;7.84;100.00
55610;BME280;41486;52.502;13.486;2023-04-09T09:40:45;102203.78;;;7.41;100.00
55610;BME280;41486;52.502;13.486;2023-04-09T09:43:14;102201.28;;;7.61;100.00
55610;BME280;41486;52.502;13.486;2023-04-09T09:45:43;102198.72;;;7.81;100.00
55610;BME280;41486;52.502;13.486;2023-04-09T09:48:13;102192.09;;;7.95;100.00
55610;BME280;41486;52.502;13.486;2023-04-09T09:50:44;102192.63;;;8.25;100.00
55610;BME280;41486;52.502;13.486;2023-04-09T09:53:13;102190.34;;;7.73;100.00
55610;BME280;41486;52.502;13.486;2023-04-09T09:55:48;102195.84;;;7.43;100.00
55610;BME280;41486;52.502;13.486;2023-04-09T09:58:22;102188.69;;;7.48;100.00
55610;BME280;41486;52.502;13.486;2023-04-09T10:00:51;102186.09;;;8.13;100.00
55610;BME280;41486;52.502;13.486;2023-04-09T10:03:21;102176.75;;;7.85;100.00
55610;BME280;41486;52.502;13.486;2023-04-09T10:05:50;102174.88;;;8.52;100.00
55610;BME280;41486;52.502;13.486;2023-04-09T10:08:20;102184.88;;;8.22;100.00
55610;BME280;41486;52.502;13.486;2023-04-09T10:10:51;102170.47;;;8.32;100.00
55610;BME280;41486;52.502;13.486;2023-04-09T10:16:03;102173.19;;;9.10;100.00
55610;BME280;41486;52.502;13.486;2023-04-09T10:18:33;102178.53;;;8.69;100.00
55610;BME280;41486;52.502;13.486;2023-04-09T10:21:06;102185.19;;;9.35;100.00
55610;BME280;41486;52.502;13.486;2023-04-09T10:23:38;102188.25;;;9.07;100.00
55610;BME280;41486;52.502;13.486;2023-04-09T10:26:07;102191.63;;;8.28;100.00
55610;BME280;41486;52.502;13.486;2023-04-09T10:28:36;102181.78;;;9.14;100.00
55610;BME280;41486;52.502;13.486;2023-04-09T10:31:05;102181.25;;;9.82;100.00
55610;BME280;41486;52.502;13.486;2023-04-09T10:33:35;102180.75;;;9.18;100.00
55610;BME280;41486;52.502;13.486;2023-04-09T10:36:06;102183.78;;;9.09;100.00
55610;BME280;41486;52.502;13.486;2023-04-09T10:38:37;102179.88;;;9.18;100.00
55610;BME280;41486;52.502;13.486;2023-04-09T10:41:13;102188.63;;;8.37;100.00
55610;BME280;41486;52.502;13.486;2023-04-09T10:43:42;102184.44;;;8.53;100.00
55610;BME280;41486;52.502;13.486;2023-04-09T10:46:27;102180.31;;;8.68;100.00
55610;BME280;41486;52.502;13.486;2023-04-09T10:49:11;102189.00;;;8.90;100.00
55610;BME280;41486;52.502;13.486;2023-04-09T10:51:40;102184.34;;;9.35;100.00
55610;BME280;41486;52.502;13.486;2023-04-09T10:54:38;102174.47;;;9.21;100.00
55610;BME280;41486;52.502;13.486;2023-04-09T10:57:16;102184.13;;;9.58;100.00
55610;BME280;41486;52.502;13.486;2023-04-09T10:59:49;102184.78;;;9.44;100.00
55610;BME280;41486;52.502;13.486;2023-04-09T11:03:09;102190.31;;;9.38;100.00
55610;BME280;41486;52.502;13.486;2023-04-09T11:05:44;102168.06;;;10.19;100.00
55610;BME280;41486;52.502;13.486;2023-04-09T11:08:16;102175.25;;;10.15;99.99
55610;BME280;41486;52.502;13.486;2023-04-09T11:10:44;102174.88;;;10.92;97.68
55610;BME280;41486;52.502;13.486;2023-04-09T11:13:20;102174.84;;;11.25;89.40
55610;BME280;41486;52.502;13.486;2023-04-09T11:15:49;102178.56;;;11.21;84.80
55610;BME280;41486;52.502;13.486;2023-04-09T11:18:22;102170.41;;;11.26;88.33
55610;BME280;41486;52.502;13.486;2023-04-09T11:20:53;102176.94;;;12.58;77.09
55610;BME280;41486;52.502;13.486;2023-04-09T11:23:24;102178.91;;;13.26;69.36
55610;BME280;41486;52.502;13.486;2023-04-09T11:25:56;102170.06;;;11.80;79.60
55610;BME280;41486;52.502;13.486;2023-04-09T11:28:27;102168.06;;;12.30;75.71
55610;BME280;41486;52.502;13.486;2023-04-09T11:30:58;102166.91;;;13.35;71.77
55610;BME280;41486;52.502;13.486;2023-04-09T11:33:31;102160.19;;;12.14;74.63
55610;BME280;41486;52.502;13.486;2023-04-09T11:36:05;102158.84;;;10.63;84.42
55610;BME280;41486;52.502;13.486;2023-04-09T11:38:39;102160.31;;;10.51;88.53
55610;BME280;41486;52.502;13.486;2023-04-09T11:41:07;102155.97;;;10.67;88.29
55610;BME280;41486;52.502;13.486;2023-04-09T11:43:39;102153.34;;;10.32;90.09
55610;BME280;41486;52.502;13.486;2023-04-09T11:46:07;102154.47;;;10.95;86.13
55610;BME280;41486;52.502;13.486;2023-04-09T11:48:36;102152.53;;;10.83;88.02
55610;BME280;41486;52.502;13.486;2023-04-09T11:51:05;102143.81;;;10.65;88.28
55610;BME280;41486;52.502;13.486;2023-04-09T11:53:36;102150.34;;;10.57;89.01
55610;BME280;41486;52.502;13.486;2023-04-09T11:56:04;102149.63;;;11.67;82.81
55610;BME280;41486;52.502;13.486;2023-04-09T11:58:34;102148.19;;;11.78;81.32
55610;BME280;41486;52.502;13.486;2023-04-09T12:01:07;102153.66;;;11.11;89.00
55610;BME280;41486;52.502;13.486;2023-04-09T12:03:36;102146.78;;;11.87;84.17
55610;BME280;41486;52.502;13.486;2023-04-09T12:06:05;102144.75;;;12.22;78.68
55610;BME280;41486;52.502;13.486;2023-04-09T12:08:35;102146.91;;;13.46;69.72
55610;BME280;41486;52.502;13.486;2023-04-09T12:11:07;102147.81;;;15.16;60.63
55610;BME280;41486;52.502;13.486;2023-04-09T12:13:36;102149.13;;;14.19;66.40
55610;BME280;41486;52.502;13.486;2023-04-09T12:16:09;102147.81;;;15.64;61.39
55610;BME280;41486;52.502;13.486;2023-04-09T12:18:38;102147.66;;;14.80;61.90
55610;BME280;41486;52.502;13.486;2023-04-09T12:21:06;102148.88;;;16.21;58.26
55610;BME280;41486;52.502;13.486;2023-04-09T12:23:34;102153.00;;;17.72;54.54
55610;BME280;41486;52.502;13.486;2023-04-09T12:26:02;102144.44;;;16.56;55.23
55610;BME280;41486;52.502;13.486;2023-04-09T12:28:30;102146.97;;;16.35;56.70
55610;BME280;41486;52.502;13.486;2023-04-09T12:30:58;102149.28;;;17.95;51.44
55610;BME280;41486;52.502;13.486;2023-04-09T12:33:30;102143.25;;;16.83;54.08
55610;BME280;41486;52.502;13.486;2023-04-09T12:35:59;102149.31;;;17.08;51.79
55610;BME280;41486;52.502;13.486;2023-04-09T12:38:30;102142.84;;;18.71;48.61
55610;BME280;41486;52.502;13.486;2023-04-09T12:40:58;102140.63;;;17.49;51.55
55610;BME280;41486;52.502;13.486;2023-04-09T12:43:28;102130.97;;;18.85;50.70
55610;BME280;41486;52.502;13.486;2023-04-09T12:45:56;102137.38;;;17.78;51.64
55610;BME280;41486;52.502;13.486;2023-04-09T12:48:24;102133.13;;;16.77;53.13
55610;BME280;41486;52.502;13.486;2023-04-09T12:50:54;102125.56;;;18.75;50.38
55610;BME280;41486;52.502;13.486;2023-04-09T12:53:22;102116.06;;;18.21;49.10
55610;BME280;41486;52.502;13.486;2023-04-09T12:55:50;102124.34;;;17.31;51.52
55610;BME280;41486;52.502;13.486;2023-04-09T12:58:21;102125.84;;;16.79;52.97
55610;BME280;41486;52.502;13.486;2023-04-09T13:00:49;102118.75;;;18.52;50.35
55610;BME280;41486;52.502;13.486;2023-04-09T13:03:22;102119.59;;;18.00;50.50